sensor_id;sensor_type;location;lat;lon;timestamp;P1;durP1;ratioP1;P2;durP2;ratioP2
56171;SDS011;42052;41.634;-0.946;2022-07-09T00:00:39;3.15;;;1.60;;
56171;SDS011;42052;41.634;-0.946;2022-07-09T00:03:05;3.67;;;1.50;;
56171;SDS011;42052;41.634;-0.946;2022-07-09T00:05:30;2.13;;;1.35;;
56171;SDS011;42052;41.634;-0.946;2022-07-09T00:07:56;3.22;;;1.55;;
56171;SDS011;42052;41.634;-0.946;2022-07-09T00:10:22;3.15;;;1.42;;
56171;SDS011;42052;41.634;-0.946;2022-07-09T00:12:48;1.95;;;1.40;;
56171;SDS011;42052;41.634;-0.946;2022-07-09T00:15:14;3.22;;;1.45;;
56171;SDS011;42052;41.634;-0.946;2022-07-09T00:17:40;1.95;;;1.40;;
56171;SDS011;42052;41.634;-0.946;2022-07-09T00:20:06;2.70;;;1.40;;
56171;SDS011;42052;41.634;-0.946;2022-07-09T00:22:32;3.03;;;1.48;;
56171;SDS011;42052;41.634;-0.946;2022-07-09T00:24:59;3.95;;;1.55;;
56171;SDS011;42052;41.634;-0.946;2022-07-09T00:27:25;2.80;;;1.27;;
56171;SDS011;42052;41.634;-0.946;2022-07-09T00:29:51;2.47;;;1.42;;
56171;SDS011;42052;41.634;-0.946;2022-07-09T00:32:17;2.13;;;1.50;;
56171;SDS011;42052;41.634;-0.946;2022-07-09T00:34:43;2.30;;;1.40;;
56171;SDS011;42052;41.634;-0.946;2022-07-09T00:37:09;4.28;;;1.50;;
56171;SDS011;42052;41.634;-0.946;2022-07-09T00:39:36;2.25;;;1.40;;
56171;SDS011;42052;41.634;-0.946;2022-07-09T00:42:03;2.38;;;1.40;;
56171;SDS011;42052;41.634;-0.946;2022-07-09T00:44:30;4.32;;;1.70;;
56171;SDS011;42052;41.634;-0.946;2022-07-09T00:46:56;2.75;;;1.42;;
56171;SDS011;42052;41.634;-0.946;2022-07-09T00:49:22;2.20;;;1.30;;
56171;SDS011;42052;41.634;-0.946;2022-07-09T00:51:49;2.45;;;1.50;;
56171;SDS011;42052;41.634;-0.946;2022-07-09T00:54:15;2.60;;;1.33;;
56171;SDS011;42052;41.634;-0.946;2022-07-09T00:56:42;2.85;;;1.40;;
56171;SDS011;42052;41.634;-0.946;2022-07-09T00:59:08;3.53;;;1.52;;
56171;SDS011;42052;41.634;-0.946;2022-07-09T01:01:37;2.47;;;1.50;;
56171;SDS011;42052;41.634;-0.946;2022-07-09T01:04:04;1.95;;;1.30;;
56171;SDS011;42052;41.634;-0.946;2022-07-09T01:06:31;2.30;;;1.42;;
56171;SDS011;42052;41.634;-0.946;2022-07-09T01:08:57;2.55;;;1.40;;
56171;SDS011;42052;41.634;-0.946;2022-07-09T01:11:22;3.95;;;1.35;;
56171;SDS011;42052;41.634;-0.946;2022-07-09T01:13:49;4.15;;;1.52;;
56171;SDS011;42052;41.634;-0.946;2022-07-09T01:16:16;2.50;;;1.40;;
56171;SDS011;42052;41.634;-0.946;2022-07-09T01:18:45;2.13;;;1.38;;
56171;SDS011;42052;41.634;-0.946;2022-07-09T01:23:40;5.28;;;1.65;;
56171;SDS011;42052;41.634;-0.946;2022-07-09T01:26:06;2.90;;;1.50;;
56171;SDS011;42052;41.634;-0.946;2022-07-09T01:28:32;2.20;;;1.60;;
56171;SDS011;42052;41.634;-0.946;2022-07-09T01:30:58;2.17;;;1.52;;
56171;SDS011;42052;41.634;-0.946;2022-07-09T01:33:27;1.65;;;1.33;;
56171;SDS011;42052;41.634;-0.946;2022-07-09T01:35:53;2.13;;;1.60;;
56171;SDS011;42052;41.634;-0.946;2022-07-09T01:38:19;4.05;;;1.40;;
56171;SDS011;42052;41.634;-0.946;2022-07-09T01:40:45;2.47;;;1.55;;
56171;SDS011;42052;41.634;-0.946;2022-07-09T01:43:11;2.47;;;1.55;;
56171;SDS011;42052;41.634;-0.946;2022-07-09T01:45:38;2.65;;;1.52;;
56171;SDS011;42052;41.634;-0.946;2022-07-09T01:48:04;2.58;;;1.50;;
56171;SDS011;42052;41.634;-0.946;2022-07-09T01:50:30;3.55;;;1.50;;
56171;SDS011;42052;41.634;-0.946;2022-07-09T01:52:55;2.15;;;1.40;;
56171;SDS011;42052;41.634;-0.946;2022-07-09T01:55:21;3.75;;;1.63;;
56171;SDS011;42052;41.634;-0.946;2022-07-09T01:57:47;2.47;;;1.40;;
56171;SDS011;42052;41.634;-0.946;2022-07-09T02:00:13;4.13;;;1.50;;
56171;SDS011;42052;41.634;-0.946;2022-07-09T02:02:39;2.20;;;1.50;;
56171;SDS011;42052;41.634;-0.946;2022-07-09T02:05:05;2.60;;;1.50;;
56171;SDS011;42052;41.634;-0.946;2022-07-09T02:07:32;2.50;;;1.45;;
56171;SDS011;42052;41.634;-0.946;2022-07-09T02:09:57;1.95;;;1.30;;
56171;SDS011;42052;41.634;-0.946;2022-07-09T02:12:24;2.75;;;1.50;;
56171;SDS011;42052;41.634;-0.946;2022-07-09T02:14:50;2.15;;;1.50;;
56171;SDS011;42052;41.634;-0.946;2022-07-09T02:17:16;1.98;;;1.40;;
56171;SDS011;42052;41.634;-0.946;2022-07-09T02:19:42;3.53;;;1.40;;
56171;SDS011;42052;41.634;-0.946;2022-07-09T02:22:08;3.13;;;1.48;;
56171;SDS011;42052;41.634;-0.946;2022-07-09T02:24:34;3.78;;;1.40;;
56171;SDS011;42052;41.634;-0.946;2022-07-09T02:27:00;2.42;;;1.58;;
56171;SDS011;42052;41.634;-0.946;2022-07-09T02:29:26;2.25;;;1.30;;
56171;SDS011;42052;41.634;-0.946;2022-07-09T02:31:52;2.40;;;1.58;;
56171;SDS011;42052;41.634;-0.946;2022-07-09T02:34:20;1.90;;;1.20;;
56171;SDS011;42052;41.634;-0.946;2022-07-09T02:36:46;2.60;;;1.30;;
56171;SDS011;42052;41.634;-0.946;2022-07-09T02:39:12;2.70;;;1.50;;
56171;SDS011;42052;41.634;-0.946;2022-07-09T02:41:38;2.30;;;1.60;;
56171;SDS011;42052;41.634;-0.946;2022-07-09T02:44:04;2.88;;;1.65;;
56171;SDS011;42052;41.634;-0.946;2022-07-09T02:46:30;1.70;;;1.40;;
56171;SDS011;42052;41.634;-0.946;2022-07-09T02:48:56;2.85;;;1.40;;
56171;SDS011;42052;41.634;-0.946;2022-07-09T02:51:21;3.28;;;1.40;;
56171;SDS011;42052;41.634;-0.946;2022-07-09T02:53:47;1.63;;;1.45;;
56171;SDS011;42052;41.634;-0.946;2022-07-09T02:56:13;2.95;;;1.50;;
56171;SDS011;42052;41.634;-0.946;2022-07-09T02:58:39;1.95;;;1.40;;
56171;SDS011;42052;41.634;-0.946;2022-07-09T03:01:05;2.40;;;1.50;;
56171;SDS011;42052;41.634;-0.946;2022-07-09T03:03:31;3.05;;;1.40;;
56171;SDS011;42052;41.634;-0.946;2022-07-09T03:06:01;2.25;;;1.50;;
56171;SDS011;42052;41.634;-0.946;2022-07-09T03:08:27;2.50;;;1.58;;
56171;SDS011;42052;41.634;-0.946;2022-07-09T03:10:53;2.78;;;1.50;;
56171;SDS011;42052;41.634;-0.946;2022-07-09T03:13:19;2.03;;;1.50;;
56171;SDS011;42052;41.634;-0.946;2022-07-09T03:15:45;1.90;;;1.40;;
56171;SDS011;42052;41.634;-0.946;2022-07-09T03:18:11;1.95;;;1.40;;
56171;SDS011;42052;41.634;-0.946;2022-07-09T03:20:37;2.42;;;1.55;;
56171;SDS011;42052;41.634;-0.946;2022-07-09T03:23:03;2.17;;;1.30;;
56171;SDS011;42052;41.634;-0.946;2022-07-09T03:25:30;2.47;;;1.50;;
56171;SDS011;42052;41.634;-0.946;2022-07-09T03:27:56;1.90;;;1.45;;
56171;SDS011;42052;41.634;-0.946;2022-07-09T03:30:22;2.50;;;1.40;;
56171;SDS011;42052;41.634;-0.946;2022-07-09T03:32:48;2.17;;;1.67;;
56171;SDS011;42052;41.634;-0.946;2022-07-09T03:35:15;2.17;;;1.63;;
56171;SDS011;42052;41.634;-0.946;2022-07-09T03:37:41;2.42;;;1.48;;
56171;SDS011;42052;41.634;-0.946;2022-07-09T03:40:07;3.03;;;1.50;;
56171;SDS011;42052;41.634;-0.946;2022-07-09T03:42:33;2.55;;;1.30;;
56171;SDS011;42052;41.634;-0.946;2022-07-09T03:44:59;2.15;;;1.40;;
56171;SDS011;42052;41.634;-0.946;2022-07-09T03:47:25;1.50;;;1.40;;
56171;SDS011;42052;41.634;-0.946;2022-07-09T03:49:51;5.25;;;1.60;;
56171;SDS011;42052;41.634;-0.946;2022-07-09T03:52:17;3.28;;;1.50;;
56171;SDS011;42052;41.634;-0.946;2022-07-09T03:54:43;2.15;;;1.50;;
56171;SDS011;42052;41.634;-0.946;2022-07-09T03:57:09;3.85;;;1.80;;
56171;SDS011;42052;41.634;-0.946;2022-07-09T03:59:36;3.33;;;1.90;;
56171;SDS011;42052;41.634;-0.946;2022-07-09T04:02:02;2.67;;;1.60;;
56171;SDS011;42052;41.634;-0.946;2022-07-09T04:04:29;2.58;;;1.40;;
56171;SDS011;42052;41.634;-0.946;2022-07-09T04:06:55;2.55;;;1.40;;
56171;SDS011;42052;41.634;-0.946;2022-07-09T04:09:21;3.42;;;1.90;;
56171;SDS011;42052;41.634;-0.946;2022-07-09T04:11:47;1.48;;;1.10;;
56171;SDS011;42052;41.634;-0.946;2022-07-09T04:14:13;3.78;;;1.60;;
56171;SDS011;42052;41.634;-0.946;2022-07-09T04:16:39;3.97;;;1.67;;
56171;SDS011;42052;41.634;-0.946;2022-07-09T04:19:06;2.58;;;1.55;;
56171;SDS011;42052;41.634;-0.946;2022-07-09T04:21:32;3.53;;;1.58;;
56171;SDS011;42052;41.634;-0.946;2022-07-09T04:23:58;4.85;;;1.90;;
56171;SDS011;42052;41.634;-0.946;2022-07-09T04:26:24;3.13;;;1.60;;
56171;SDS011;42052;41.634;-0.946;2022-07-09T04:28:49;3.08;;;1.65;;
56171;SDS011;42052;41.634;-0.946;2022-07-09T04:31:15;3.30;;;1.60;;
56171;SDS011;42052;41.634;-0.946;2022-07-09T04:33:43;1.80;;;1.48;;
56171;SDS011;42052;41.634;-0.946;2022-07-09T04:36:10;3.75;;;1.80;;
56171;SDS011;42052;41.634;-0.946;2022-07-09T04:38:36;4.93;;;1.80;;
56171;SDS011;42052;41.634;-0.946;2022-07-09T04:41:02;4.28;;;1.70;;
56171;SDS011;42052;41.634;-0.946;2022-07-09T04:43:29;4.55;;;1.80;;
56171;SDS011;42052;41.634;-0.946;2022-07-09T04:45:55;2.78;;;1.65;;
56171;SDS011;42052;41.634;-0.946;2022-07-09T04:48:21;2.95;;;1.73;;
56171;SDS011;42052;41.634;-0.946;2022-07-09T04:50:48;2.33;;;1.60;;
56171;SDS011;42052;41.634;-0.946;2022-07-09T04:53:14;3.60;;;1.77;;
56171;SDS011;42052;41.634;-0.946;2022-07-09T04:55:39;3.35;;;1.70;;
56171;SDS011;42052;41.634;-0.946;2022-07-09T04:58:05;3.22;;;1.80;;
56171;SDS011;42052;41.634;-0.946;2022-07-09T05:00:31;1.58;;;1.40;;
56171;SDS011;42052;41.634;-0.946;2022-07-09T05:02:58;2.67;;;1.85;;
56171;SDS011;42052;41.634;-0.946;2022-07-09T05:05:24;3.00;;;1.67;;
56171;SDS011;42052;41.634;-0.946;2022-07-09T05:07:51;3.42;;;1.55;;
56171;SDS011;42052;41.634;-0.946;2022-07-09T05:10:17;2.42;;;1.73;;
56171;SDS011;42052;41.634;-0.946;2022-07-09T05:12:44;4.35;;;1.55;;
56171;SDS011;42052;41.634;-0.946;2022-07-09T05:15:13;3.55;;;1.80;;
56171;SDS011;42052;41.634;-0.946;2022-07-09T05:17:39;2.70;;;1.83;;
56171;SDS011;42052;41.634;-0.946;2022-07-09T05:20:06;4.10;;;1.70;;
56171;SDS011;42052;41.634;-0.946;2022-07-09T05:22:35;2.85;;;1.52;;
56171;SDS011;42052;41.634;-0.946;2022-07-09T05:25:02;2.33;;;1.60;;
56171;SDS011;42052;41.634;-0.946;2022-07-09T05:27:29;3.33;;;1.77;;
56171;SDS011;42052;41.634;-0.946;2022-07-09T05:29:55;2.35;;;1.60;;
56171;SDS011;42052;41.634;-0.946;2022-07-09T05:32:21;5.80;;;1.80;;
56171;SDS011;42052;41.634;-0.946;2022-07-09T05:34:46;3.28;;;1.70;;
56171;SDS011;42052;41.634;-0.946;2022-07-09T05:37:12;1.88;;;1.48;;
56171;SDS011;42052;41.634;-0.946;2022-07-09T05:39:38;1.90;;;1.50;;
56171;SDS011;42052;41.634;-0.946;2022-07-09T05:42:05;2.40;;;1.80;;
56171;SDS011;42052;41.634;-0.946;2022-07-09T05:44:31;3.47;;;1.73;;
56171;SDS011;42052;41.634;-0.946;2022-07-09T05:46:57;2.25;;;1.42;;
56171;SDS011;42052;41.634;-0.946;2022-07-09T05:49:23;2.08;;;1.50;;
56171;SDS011;42052;41.634;-0.946;2022-07-09T05:51:49;2.83;;;1.52;;
56171;SDS011;42052;41.634;-0.946;2022-07-09T05:54:14;3.00;;;1.88;;
56171;SDS011;42052;41.634;-0.946;2022-07-09T05:56:40;2.67;;;1.60;;
56171;SDS011;42052;41.634;-0.946;2022-07-09T05:59:07;3.63;;;1.75;;
56171;SDS011;42052;41.634;-0.946;2022-07-09T06:01:33;2.92;;;1.67;;
56171;SDS011;42052;41.634;-0.946;2022-07-09T06:04:05;4.22;;;1.60;;
56171;SDS011;42052;41.634;-0.946;2022-07-09T06:06:31;3.05;;;1.60;;
56171;SDS011;42052;41.634;-0.946;2022-07-09T06:08:57;3.40;;;1.95;;
56171;SDS011;42052;41.634;-0.946;2022-07-09T06:11:22;5.63;;;1.75;;
56171;SDS011;42052;41.634;-0.946;2022-07-09T06:13:48;2.65;;;1.63;;
56171;SDS011;42052;41.634;-0.946;2022-07-09T06:16:14;3.03;;;1.77;;
56171;SDS011;42052;41.634;-0.946;2022-07-09T06:18:40;2.55;;;1.67;;
56171;SDS011;42052;41.634;-0.946;2022-07-09T06:21:06;2.33;;;1.63;;
56171;SDS011;42052;41.634;-0.946;2022-07-09T06:23:32;2.80;;;1.60;;
56171;SDS011;42052;41.634;-0.946;2022-07-09T06:25:57;4.72;;;1.73;;
56171;SDS011;42052;41.634;-0.946;2022-07-09T06:28:26;5.55;;;1.70;;
56171;SDS011;42052;41.634;-0.946;2022-07-09T06:30:52;2.78;;;1.75;;
56171;SDS011;42052;41.634;-0.946;2022-07-09T06:33:18;3.97;;;1.70;;
56171;SDS011;42052;41.634;-0.946;2022-07-09T06:35:44;2.58;;;1.50;;
56171;SDS011;42052;41.634;-0.946;2022-07-09T06:38:09;2.80;;;1.60;;
56171;SDS011;42052;41.634;-0.946;2022-07-09T06:40:35;3.50;;;1.92;;
56171;SDS011;42052;41.634;-0.946;2022-07-09T06:43:01;3.65;;;1.70;;
56171;SDS011;42052;41.634;-0.946;2022-07-09T06:45:27;4.13;;;2.00;;
56171;SDS011;42052;41.634;-0.946;2022-07-09T06:47:53;7.28;;;1.88;;
56171;SDS011;42052;41.634;-0.946;2022-07-09T06:50:19;3.72;;;1.80;;
56171;SDS011;42052;41.634;-0.946;2022-07-09T06:52:45;4.47;;;1.92;;
56171;SDS011;42052;41.634;-0.946;2022-07-09T06:55:11;2.85;;;1.70;;
56171;SDS011;42052;41.634;-0.946;2022-07-09T06:57:37;4.38;;;1.98;;
56171;SDS011;42052;41.634;-0.946;2022-07-09T07:00:06;4.32;;;1.80;;
56171;SDS011;42052;41.634;-0.946;2022-07-09T07:02:33;4.97;;;2.22;;
56171;SDS011;42052;41.634;-0.946;2022-07-09T07:04:59;4.03;;;2.00;;
56171;SDS011;42052;41.634;-0.946;2022-07-09T07:07:24;4.93;;;2.20;;
56171;SDS011;42052;41.634;-0.946;2022-07-09T07:09:50;5.10;;;2.10;;
56171;SDS011;42052;41.634;-0.946;2022-07-09T07:12:16;4.45;;;1.90;;
56171;SDS011;42052;41.634;-0.946;2022-07-09T07:14:42;4.50;;;2.00;;
56171;SDS011;42052;41.634;-0.946;2022-07-09T07:17:08;5.05;;;2.08;;
56171;SDS011;42052;41.634;-0.946;2022-07-09T07:19:34;3.60;;;2.08;;
56171;SDS011;42052;41.634;-0.946;2022-07-09T07:22:00;4.72;;;2.00;;
56171;SDS011;42052;41.634;-0.946;2022-07-09T07:24:26;4.72;;;2.00;;
56171;SDS011;42052;41.634;-0.946;2022-07-09T07:26:55;5.75;;;2.42;;
56171;SDS011;42052;41.634;-0.946;2022-07-09T07:29:21;4.47;;;2.00;;
56171;SDS011;42052;41.634;-0.946;2022-07-09T07:31:47;5.45;;;2.30;;
56171;SDS011;42052;41.634;-0.946;2022-07-09T07:34:14;6.13;;;2.05;;
56171;SDS011;42052;41.634;-0.946;2022-07-09T07:36:40;5.30;;;2.30;;
56171;SDS011;42052;41.634;-0.946;2022-07-09T07:39:06;5.18;;;2.45;;
56171;SDS011;42052;41.634;-0.946;2022-07-09T07:41:32;4.85;;;2.20;;
56171;SDS011;42052;41.634;-0.946;2022-07-09T07:43:58;4.13;;;1.90;;
56171;SDS011;42052;41.634;-0.946;2022-07-09T07:46:24;5.53;;;2.10;;
56171;SDS011;42052;41.634;-0.946;2022-07-09T07:48:49;4.78;;;2.03;;
56171;SDS011;42052;41.634;-0.946;2022-07-09T07:51:15;3.95;;;2.22;;
56171;SDS011;42052;41.634;-0.946;2022-07-09T07:53:41;5.00;;;2.38;;
56171;SDS011;42052;41.634;-0.946;2022-07-09T07:56:07;4.95;;;2.30;;
56171;SDS011;42052;41.634;-0.946;2022-07-09T07:58:34;6.05;;;2.20;;
56171;SDS011;42052;41.634;-0.946;2022-07-09T08:01:01;4.97;;;2.08;;
56171;SDS011;42052;41.634;-0.946;2022-07-09T08:03:27;7.20;;;2.55;;
56171;SDS011;42052;41.634;-0.946;2022-07-09T08:05:53;4.20;;;2.10;;
56171;SDS011;42052;41.634;-0.946;2022-07-09T08:08:19;3.05;;;2.20;;
56171;SDS011;42052;41.634;-0.946;2022-07-09T08:10:45;5.15;;;2.30;;
56171;SDS011;42052;41.634;-0.946;2022-07-09T08:13:13;3.22;;;2.17;;
56171;SDS011;42052;41.634;-0.946;2022-07-09T08:15:40;3.92;;;2.13;;
56171;SDS011;42052;41.634;-0.946;2022-07-09T08:18:06;3.47;;;2.10;;
56171;SDS011;42052;41.634;-0.946;2022-07-09T08:20:37;3.38;;;1.90;;
56171;SDS011;42052;41.634;-0.946;2022-07-09T08:23:04;3.83;;;2.13;;
56171;SDS011;42052;41.634;-0.946;2022-07-09T08:25:29;3.90;;;1.77;;
56171;SDS011;42052;41.634;-0.946;2022-07-09T08:27:55;3.42;;;1.98;;
56171;SDS011;42052;41.634;-0.946;2022-07-09T08:30:21;3.10;;;1.98;;
56171;SDS011;42052;41.634;-0.946;2022-07-09T08:32:47;3.90;;;2.10;;
56171;SDS011;42052;41.634;-0.946;2022-07-09T08:35:13;5.55;;;2.33;;
56171;SDS011;42052;41.634;-0.946;2022-07-09T08:37:39;4.00;;;1.80;;
56171;SDS011;42052;41.634;-0.946;2022-07-09T08:40:06;3.00;;;2.10;;
56171;SDS011;42052;41.634;-0.946;2022-07-09T08:42:32;5.40;;;2.20;;
56171;SDS011;42052;41.634;-0.946;2022-07-09T08:44:58;4.75;;;2.40;;
56171;SDS011;42052;41.634;-0.946;2022-07-09T08:47:25;7.95;;;2.47;;
56171;SDS011;42052;41.634;-0.946;2022-07-09T08:49:54;4.80;;;2.40;;
56171;SDS011;42052;41.634;-0.946;2022-07-09T08:52:23;5.35;;;2.45;;
56171;SDS011;42052;41.634;-0.946;2022-07-09T08:54:50;5.28;;;2.50;;
56171;SDS011;42052;41.634;-0.946;2022-07-09T08:57:18;4.28;;;2.10;;
56171;SDS011;42052;41.634;-0.946;2022-07-09T08:59:43;7.20;;;2.42;;
56171;SDS011;42052;41.634;-0.946;2022-07-09T09:02:09;3.30;;;2.22;;
56171;SDS011;42052;41.634;-0.946;2022-07-09T09:04:37;3.58;;;2.15;;
56171;SDS011;42052;41.634;-0.946;2022-07-09T09:09:41;3.40;;;2.08;;
56171;SDS011;42052;41.634;-0.946;2022-07-09T09:12:07;2.30;;;1.90;;
56171;SDS011;42052;41.634;-0.946;2022-07-09T09:14:34;4.05;;;1.90;;
56171;SDS011;42052;41.634;-0.946;2022-07-09T09:17:06;4.90;;;2.10;;
56171;SDS011;42052;41.634;-0.946;2022-07-09T09:19:37;3.13;;;1.88;;
56171;SDS011;42052;41.634;-0.946;2022-07-09T09:22:04;2.90;;;1.85;;
56171;SDS011;42052;41.634;-0.946;2022-07-09T09:24:32;4.63;;;2.20;;
56171;SDS011;42052;41.634;-0.946;2022-07-09T09:26:59;2.45;;;1.80;;
56171;SDS011;42052;41.634;-0.946;2022-07-09T09:29:28;4.45;;;1.98;;
56171;SDS011;42052;41.634;-0.946;2022-07-09T09:31:54;5.30;;;1.73;;
56171;SDS011;42052;41.634;-0.946;2022-07-09T09:37:24;2.58;;;1.73;;
56171;SDS011;42052;41.634;-0.946;2022-07-09T09:39:54;3.72;;;1.60;;
56171;SDS011;42052;41.634;-0.946;2022-07-09T09:42:22;4.13;;;1.75;;
56171;SDS011;42052;41.634;-0.946;2022-07-09T09:44:50;3.00;;;1.60;;
56171;SDS011;42052;41.634;-0.946;2022-07-09T09:47:16;4.50;;;1.83;;
56171;SDS011;42052;41.634;-0.946;2022-07-09T09:49:48;5.10;;;1.73;;
56171;SDS011;42052;41.634;-0.946;2022-07-09T09:52:14;2.42;;;1.80;;
56171;SDS011;42052;41.634;-0.946;2022-07-09T09:54:46;2.10;;;1.67;;
56171;SDS011;42052;41.634;-0.946;2022-07-09T09:57:14;3.13;;;1.63;;
56171;SDS011;42052;41.634;-0.946;2022-07-09T09:59:42;6.63;;;2.00;;
56171;SDS011;42052;41.634;-0.946;2022-07-09T10:02:13;1.88;;;1.60;;
56171;SDS011;42052;41.634;-0.946;2022-07-09T10:04:43;2.80;;;1.63;;
56171;SDS011;42052;41.634;-0.946;2022-07-09T10:07:13;2.65;;;1.92;;
56171;SDS011;42052;41.634;-0.946;2022-07-09T10:09:40;2.30;;;1.60;;
56171;SDS011;42052;41.634;-0.946;2022-07-09T10:12:28;2.58;;;1.70;;
56171;SDS011;42052;41.634;-0.946;2022-07-09T10:14:57;2.85;;;1.50;;
56171;SDS011;42052;41.634;-0.946;2022-07-09T10:17:26;1.88;;;1.58;;
56171;SDS011;42052;41.634;-0.946;2022-07-09T10:25:08;2.42;;;1.60;;
56171;SDS011;42052;41.634;-0.946;2022-07-09T10:33:06;3.15;;;1.60;;
56171;SDS011;42052;41.634;-0.946;2022-07-09T10:35:43;2.63;;;1.50;;
56171;SDS011;42052;41.634;-0.946;2022-07-09T10:38:10;2.25;;;1.40;;
56171;SDS011;42052;41.634;-0.946;2022-07-09T10:40:40;2.90;;;1.65;;
56171;SDS011;42052;41.634;-0.946;2022-07-09T10:43:08;3.13;;;1.60;;
56171;SDS011;42052;41.634;-0.946;2022-07-09T10:48:00;2.33;;;1.50;;
56171;SDS011;42052;41.634;-0.946;2022-07-09T10:50:29;2.25;;;1.40;;
56171;SDS011;42052;41.634;-0.946;2022-07-09T10:52:56;1.92;;;1.50;;
56171;SDS011;42052;41.634;-0.946;2022-07-09T10:55:25;3.08;;;1.75;;
56171;SDS011;42052;41.634;-0.946;2022-07-09T10:57:52;1.88;;;1.38;;
56171;SDS011;42052;41.634;-0.946;2022-07-09T11:00:20;2.83;;;1.58;;
56171;SDS011;42052;41.634;-0.946;2022-07-09T11:02:51;2.20;;;1.35;;
56171;SDS011;42052;41.634;-0.946;2022-07-09T11:05:21;3.15;;;1.55;;
56171;SDS011;42052;41.634;-0.946;2022-07-09T11:08:21;2.17;;;1.35;;
56171;SDS011;42052;41.634;-0.946;2022-07-09T11:10:39;3.00;;;1.40;;
56171;SDS011;42052;41.634;-0.946;2022-07-09T11:13:06;1.65;;;1.30;;
56171;SDS011;42052;41.634;-0.946;2022-07-09T11:15:34;1.80;;;1.33;;
56171;SDS011;42052;41.634;-0.946;2022-07-09T11:18:10;1.35;;;1.23;;
56171;SDS011;42052;41.634;-0.946;2022-07-09T11:23:13;2.28;;;1.52;;
56171;SDS011;42052;41.634;-0.946;2022-07-09T11:25:40;1.88;;;1.40;;
56171;SDS011;42052;41.634;-0.946;2022-07-09T11:28:24;1.83;;;1.40;;
56171;SDS011;42052;41.634;-0.946;2022-07-09T11:31:03;1.77;;;1.40;;
56171;SDS011;42052;41.634;-0.946;2022-07-09T11:33:30;1.92;;;1.40;;
56171;SDS011;42052;41.634;-0.946;2022-07-09T11:36:16;1.52;;;1.30;;
56171;SDS011;42052;41.634;-0.946;2022-07-09T11:38:49;1.55;;;1.30;;
56171;SDS011;42052;41.634;-0.946;2022-07-09T11:41:15;2.85;;;1.30;;
56171;SDS011;42052;41.634;-0.946;2022-07-09T11:43:51;1.30;;;1.20;;
56171;SDS011;42052;41.634;-0.946;2022-07-09T11:46:17;1.50;;;1.20;;
56171;SDS011;42052;41.634;-0.946;2022-07-09T11:48:54;1.50;;;1.20;;
56171;SDS011;42052;41.634;-0.946;2022-07-09T11:51:53;1.30;;;1.20;;
56171;SDS011;42052;41.634;-0.946;2022-07-09T11:54:12;1.55;;;1.27;;
56171;SDS011;42052;41.634;-0.946;2022-07-09T11:56:42;1.70;;;1.40;;
56171;SDS011;42052;41.634;-0.946;2022-07-09T11:59:13;1.25;;;1.15;;
56171;SDS011;42052;41.634;-0.946;2022-07-09T12:01:49;2.33;;;1.17;;
56171;SDS011;42052;41.634;-0.946;2022-07-09T12:04:18;1.45;;;1.35;;
56171;SDS011;42052;41.634;-0.946;2022-07-09T12:06:48;1.40;;;1.10;;
56171;SDS011;42052;41.634;-0.946;2022-07-09T12:09:15;2.35;;;1.33;;
56171;SDS011;42052;41.634;-0.946;2022-07-09T12:11:51;2.03;;;1.40;;
56171;SDS011;42052;41.634;-0.946;2022-07-09T12:14:17;1.38;;;1.27;;
56171;SDS011;42052;41.634;-0.946;2022-07-09T12:16:43;1.52;;;1.40;;
56171;SDS011;42052;41.634;-0.946;2022-07-09T12:19:09;1.70;;;1.17;;
56171;SDS011;42052;41.634;-0.946;2022-07-09T12:21:35;1.88;;;1.48;;
56171;SDS011;42052;41.634;-0.946;2022-07-09T12:24:00;1.10;;;1.00;;
56171;SDS011;42052;41.634;-0.946;2022-07-09T12:26:26;1.52;;;1.25;;
56171;SDS011;42052;41.634;-0.946;2022-07-09T12:28:52;1.92;;;1.20;;
56171;SDS011;42052;41.634;-0.946;2022-07-09T12:31:18;2.45;;;1.58;;
56171;SDS011;42052;41.634;-0.946;2022-07-09T12:33:43;1.58;;;1.27;;
56171;SDS011;42052;41.634;-0.946;2022-07-09T12:36:10;1.60;;;1.40;;
56171;SDS011;42052;41.634;-0.946;2022-07-09T12:38:36;1.83;;;1.27;;
56171;SDS011;42052;41.634;-0.946;2022-07-09T12:41:01;1.40;;;1.30;;
56171;SDS011;42052;41.634;-0.946;2022-07-09T12:43:27;2.13;;;1.23;;
56171;SDS011;42052;41.634;-0.946;2022-07-09T12:45:53;1.40;;;1.05;;
56171;SDS011;42052;41.634;-0.946;2022-07-09T12:48:19;1.40;;;1.20;;
56171;SDS011;42052;41.634;-0.946;2022-07-09T12:50:45;1.55;;;1.10;;
56171;SDS011;42052;41.634;-0.946;2022-07-09T12:53:12;1.48;;;1.15;;
56171;SDS011;42052;41.634;-0.946;2022-07-09T12:55:38;1.50;;;1.10;;
56171;SDS011;42052;41.634;-0.946;2022-07-09T12:58:04;1.52;;;1.25;;
56171;SDS011;42052;41.634;-0.946;2022-07-09T13:00:30;1.90;;;1.33;;
56171;SDS011;42052;41.634;-0.946;2022-07-09T13:02:56;1.90;;;1.20;;
56171;SDS011;42052;41.634;-0.946;2022-07-09T13:05:22;1.65;;;1.25;;
56171;SDS011;42052;41.634;-0.946;2022-07-09T13:07:47;1.50;;;1.20;;
56171;SDS011;42052;41.634;-0.946;2022-07-09T13:10:13;1.63;;;1.40;;
56171;SDS011;42052;41.634;-0.946;2022-07-09T13:12:39;2.08;;;1.20;;
56171;SDS011;42052;41.634;-0.946;2022-07-09T13:15:05;1.40;;;1.30;;
56171;SDS011;42052;41.634;-0.946;2022-07-09T13:17:31;1.75;;;1.20;;
56171;SDS011;42052;41.634;-0.946;2022-07-09T13:19:57;1.67;;;1.30;;
56171;SDS011;42052;41.634;-0.946;2022-07-09T13:22:23;1.88;;;1.20;;
56171;SDS011;42052;41.634;-0.946;2022-07-09T13:24:49;1.27;;;1.17;;
56171;SDS011;42052;41.634;-0.946;2022-07-09T13:27:15;1.80;;;1.20;;
56171;SDS011;42052;41.634;-0.946;2022-07-09T13:29:44;1.50;;;1.20;;
56171;SDS011;42052;41.634;-0.946;2022-07-09T13:32:10;2.45;;;1.30;;
56171;SDS011;42052;41.634;-0.946;2022-07-09T13:34:36;1.90;;;1.25;;
56171;SDS011;42052;41.634;-0.946;2022-07-09T13:37:02;1.63;;;1.30;;
56171;SDS011;42052;41.634;-0.946;2022-07-09T13:39:28;1.88;;;1.38;;
56171;SDS011;42052;41.634;-0.946;2022-07-09T13:41:54;2.30;;;1.13;;
56171;SDS011;42052;41.634;-0.946;2022-07-09T13:44:19;1.83;;;1.20;;
56171;SDS011;42052;41.634;-0.946;2022-07-09T13:46:45;1.50;;;1.30;;
56171;SDS011;42052;41.634;-0.946;2022-07-09T13:49:11;1.33;;;1.00;;
56171;SDS011;42052;41.634;-0.946;2022-07-09T13:51:37;1.73;;;1.05;;
56171;SDS011;42052;41.634;-0.946;2022-07-09T13:54:03;2.40;;;1.30;;
56171;SDS011;42052;41.634;-0.946;2022-07-09T13:56:29;1.67;;;1.20;;
56171;SDS011;42052;41.634;-0.946;2022-07-09T13:58:55;1.40;;;1.20;;
56171;SDS011;42052;41.634;-0.946;2022-07-09T14:01:21;2.10;;;1.20;;
56171;SDS011;42052;41.634;-0.946;2022-07-09T14:03:47;1.30;;;1.15;;
56171;SDS011;42052;41.634;-0.946;2022-07-09T14:06:13;2.22;;;1.10;;
56171;SDS011;42052;41.634;-0.946;2022-07-09T14:08:39;1.77;;;1.00;;
56171;SDS011;42052;41.634;-0.946;2022-07-09T14:11:05;2.35;;;1.20;;
56171;SDS011;42052;41.634;-0.946;2022-07-09T14:13:31;1.98;;;1.30;;
56171;SDS011;42052;41.634;-0.946;2022-07-09T14:15:57;1.60;;;1.17;;
56171;SDS011;42052;41.634;-0.946;2022-07-09T14:18:24;2.15;;;1.20;;
56171;SDS011;42052;41.634;-0.946;2022-07-09T14:20:50;2.00;;;1.15;;
56171;SDS011;42052;41.634;-0.946;2022-07-09T14:23:16;1.88;;;1.30;;
56171;SDS011;42052;41.634;-0.946;2022-07-09T14:25:42;2.60;;;1.30;;
56171;SDS011;42052;41.634;-0.946;2022-07-09T14:28:08;2.30;;;1.30;;
56171;SDS011;42052;41.634;-0.946;2022-07-09T14:30:34;2.15;;;1.33;;
56171;SDS011;42052;41.634;-0.946;2022-07-09T14:33:00;2.45;;;1.40;;
56171;SDS011;42052;41.634;-0.946;2022-07-09T14:35:26;2.03;;;1.27;;
56171;SDS011;42052;41.634;-0.946;2022-07-09T14:37:52;1.60;;;1.20;;
56171;SDS011;42052;41.634;-0.946;2022-07-09T14:40:18;1.48;;;1.30;;
56171;SDS011;42052;41.634;-0.946;2022-07-09T14:42:43;1.23;;;1.00;;
56171;SDS011;42052;41.634;-0.946;2022-07-09T14:45:09;1.35;;;1.13;;
56171;SDS011;42052;41.634;-0.946;2022-07-09T14:47:36;1.67;;;1.20;;
56171;SDS011;42052;41.634;-0.946;2022-07-09T14:50:02;1.90;;;1.25;;
56171;SDS011;42052;41.634;-0.946;2022-07-09T14:52:28;1.52;;;1.05;;
56171;SDS011;42052;41.634;-0.946;2022-07-09T14:54:54;1.63;;;1.20;;